Time;durP1;ratioP1;P1;durP2;ratioP2;P2;SDS_P1;SDS_P2;PMS_P1;PMS_P2;Temp;Humidity;BMP_temperature;BMP_pressure;BME280_temperature;BME280_humidity;BME280_pressure;Samples;Min_cycle;Max_cycle;Signal;HPM_P1;HPM_P2
2022/07/27 00:01:52;;;;;;;3.13;1.90;;;23.40;52.10;;;23.73;38.33;98589.88;5047956;27;123364;-70
2022/07/27 00:04:19;;;;;;;3.73;1.83;;;23.30;52.10;;;23.71;38.12;98583.81;5049481;27;123479;-70
2022/07/27 00:06:45;;;;;;;2.37;1.63;;;23.30;52.30;;;23.69;38.27;98589.03;5035173;27;114656;-70
2022/07/27 00:09:11;;;;;;;3.97;2.00;;;23.30;52.40;;;23.66;38.50;98595.47;5040770;27;114155;-70
2022/07/27 00:11:38;;;;;;;4.23;2.00;;;23.20;52.50;;;23.59;38.58;98575.78;5038936;27;123359;-70
2022/07/27 00:14:05;;;;;;;3.40;1.57;;;23.20;52.60;;;23.55;38.48;98586.25;5046890;27;122996;-69
2022/07/27 00:16:31;;;;;;;2.57;1.70;;;23.20;52.80;;;23.52;38.94;98584.22;5041412;27;114297;-69
2022/07/27 00:18:58;;;;;;;3.87;1.90;;;23.10;53.00;;;23.47;39.21;98590.28;5046834;27;114426;-69
2022/07/27 00:21:25;;;;;;;3.87;1.90;;;23.10;53.40;;;23.43;39.28;98586.63;5031728;27;124272;-70
2022/07/27 00:23:53;;;;;;;2.30;1.60;;;23.00;54.20;;;23.39;39.36;98586.66;5046152;27;123855;-69
2022/07/27 00:26:20;;;;;;;2.53;1.73;;;23.00;53.70;;;23.36;39.56;98591.09;5043514;27;115428;-70
2022/07/27 00:28:47;;;;;;;2.10;1.83;;;23.00;53.80;;;23.34;39.52;98589.88;5035886;27;114579;-70
2022/07/27 00:31:13;;;;;;;5.90;2.10;;;22.90;53.80;;;23.31;39.78;98585.84;5035190;27;123183;-70
2022/07/27 00:33:40;;;;;;;3.07;1.73;;;22.90;54.10;;;23.29;39.67;98582.66;5035025;27;123832;-70
2022/07/27 00:36:07;;;;;;;2.43;1.70;;;22.90;54.10;;;23.29;39.71;98584.63;5031136;27;115346;-70
2022/07/27 00:38:33;;;;;;;2.40;1.80;;;22.90;54.10;;;23.29;39.82;98582.66;5036785;27;115078;-71
2022/07/27 00:41:00;;;;;;;3.10;2.20;;;22.90;54.40;;;23.29;40.06;98593.09;5039234;27;124138;-70
2022/07/27 00:43:26;;;;;;;1.90;1.70;;;22.90;54.60;;;23.28;39.98;98592.28;5041257;27;123865;-70
2022/07/27 00:45:53;;;;;;;4.93;2.13;;;22.90;54.60;;;23.31;39.99;98596.31;5049977;27;113529;-69
2022/07/27 00:48:19;;;;;;;4.80;1.50;;;22.90;54.60;;;23.37;39.88;98597.53;5048331;27;113940;-70
2022/07/27 00:50:47;;;;;;;3.67;2.17;;;22.90;54.60;;;23.43;39.90;98597.91;5047027;27;124566;-70
2022/07/27 00:53:13;;;;;;;3.17;1.70;;;23.00;54.90;;;23.46;39.98;98597.13;5035241;27;123843;-70
2022/07/27 00:55:41;;;;;;;3.70;2.03;;;23.00;54.90;;;23.51;39.71;98591.09;5035772;27;114170;-70
2022/07/27 00:58:07;;;;;;;8.30;2.27;;;23.00;54.90;;;23.54;39.84;98590.28;5042211;27;114078;-69
2022/07/27 01:00:37;;;;;;;2.37;1.70;;;23.00;54.80;;;23.57;39.88;98581.00;5045582;27;124539;-69
2022/07/27 01:03:04;;;;;;;4.30;2.17;;;23.00;54.70;;;23.58;39.76;98588.25;5049549;27;124503;-69
2022/07/27 01:05:34;;;;;;;2.60;1.90;;;23.10;54.70;;;23.60;39.73;98583.00;5047778;27;113218;-69
2022/07/27 01:08:00;;;;;;;3.50;1.93;;;23.10;54.70;;;23.62;39.67;98591.88;5034640;27;115418;-69
2022/07/27 01:10:27;;;;;;;2.97;1.77;;;23.10;54.70;;;23.60;39.72;98575.34;5042887;27;124234;-69
2022/07/27 01:12:54;;;;;;;2.87;1.67;;;23.10;54.70;;;23.58;39.83;98568.50;5047180;27;124207;-69
2022/07/27 01:15:21;;;;;;;7.73;2.13;;;23.10;54.70;;;23.54;39.99;98560.06;5028899;27;113753;-70
2022/07/27 01:17:47;;;;;;;2.10;1.70;;;23.10;54.70;;;23.52;39.93;98572.94;5041809;27;113884;-69
2022/07/27 01:20:14;;;;;;;2.63;1.90;;;23.10;54.70;;;23.51;39.99;98572.16;5043788;27;124070;-69
2022/07/27 01:22:40;;;;;;;4.00;2.20;;;23.10;54.70;;;23.50;40.07;98549.97;5021991;27;123352;-70
2022/07/27 01:25:08;;;;;;;5.43;2.30;;;23.10;54.90;;;23.51;40.07;98565.72;5035667;27;115083;-70
2022/07/27 01:27:35;;;;;;;4.23;1.90;;;23.10;54.90;;;23.51;40.06;98565.72;5039492;27;114945;-69
2022/07/27 01:30:25;;;;;;;4.80;1.80;;;23.10;55.00;;;23.51;40.13;98565.72;5036616;27;122247;-69
2022/07/27 01:33:01;;;;;;;2.97;1.87;;;23.10;55.00;;;23.50;40.01;98561.25;5045484;27;123753;-69
2022/07/27 01:35:28;;;;;;;3.30;2.10;;;23.10;55.00;;;23.47;39.83;98551.59;5046434;27;115212;-69
2022/07/27 01:37:55;;;;;;;2.13;1.93;;;23.10;55.10;;;23.46;40.08;98549.19;5043856;27;113971;-69
2022/07/27 01:40:22;;;;;;;2.83;2.10;;;23.00;55.20;;;23.45;40.05;98551.19;5042275;27;124300;-69
2022/07/27 01:42:49;;;;;;;2.50;1.80;;;23.00;55.20;;;23.41;40.12;98541.16;5043334;27;123663;-69
2022/07/27 01:45:16;;;;;;;2.70;1.77;;;23.00;55.30;;;23.38;40.39;98545.59;5029275;27;114598;-69
2022/07/27 01:47:42;;;;;;;1.90;1.70;;;23.00;55.40;;;23.36;40.23;98548.78;5044493;27;114265;-69
2022/07/27 01:50:10;;;;;;;2.43;1.80;;;22.90;55.40;;;23.34;40.47;98539.94;5030766;27;123981;-68
2022/07/27 01:52:38;;;;;;;5.83;2.23;;;22.90;55.50;;;23.34;40.54;98545.56;5044043;27;122907;-68
2022/07/27 01:55:09;;;;;;;3.20;1.90;;;22.90;55.60;;;23.34;40.62;98542.75;5046225;27;114362;-69
2022/07/27 01:57:37;;;;;;;3.43;1.83;;;22.90;55.70;;;23.34;40.65;98545.56;5028712;27;113026;-69
2022/07/27 02:00:09;;;;;;;2.70;2.17;;;22.90;55.80;;;23.34;40.68;98539.13;5047605;27;124162;-68
2022/07/27 02:02:36;;;;;;;2.33;1.90;;;22.90;55.80;;;23.31;40.54;98535.09;5036935;27;122920;-69
2022/07/27 02:05:04;;;;;;;3.97;2.50;;;22.90;55.80;;;23.29;40.94;98533.91;5028987;27;114772;-69
2022/07/27 02:07:31;;;;;;;2.03;1.60;;;22.90;56.00;;;23.29;40.78;98531.06;5036088;27;113567;-70
2022/07/27 02:09:57;;;;;;;3.50;2.57;;;22.80;56.00;;;23.30;40.70;98539.13;5046093;27;124565;-70
2022/07/27 02:12:35;;;;;;;4.73;2.10;;;22.90;56.20;;;23.30;40.68;98533.50;5029251;27;122014;-70
2022/07/27 02:15:14;;;;;;;3.00;1.90;;;22.80;56.10;;;23.28;40.83;98526.66;5028735;27;115071;-70
2022/07/27 02:17:42;;;;;;;4.13;2.20;;;22.80;56.30;;;23.23;41.04;98524.25;5045880;27;115164;-70
2022/07/27 02:20:10;;;;;;;3.20;2.13;;;22.70;56.20;;;23.20;40.94;98517.41;5047397;27;123988;-70
2022/07/27 02:22:37;;;;;;;3.50;1.80;;;22.80;56.50;;;23.16;41.18;98527.88;5042402;27;123645;-69
2022/07/27 02:25:05;;;;;;;2.70;2.00;;;22.70;56.50;;;23.11;40.97;98525.47;5029389;27;114346;-70
2022/07/27 02:27:31;;;;;;;2.60;1.90;;;22.70;56.60;;;23.05;41.17;98532.69;5032193;27;113319;-70
2022/07/27 02:29:58;;;;;;;5.00;2.20;;;22.60;56.70;;;22.99;41.26;98528.69;5031189;27;124090;-70
2022/07/27 02:32:24;;;;;;;1.87;1.70;;;22.50;56.80;;;22.92;41.56;98530.28;5046452;27;124193;-70
2022/07/27 02:34:51;;;;;;;3.90;3.00;;;22.50;57.00;;;22.90;41.71;98532.69;5048287;27;114275;-70
2022/07/27 02:37:18;;;;;;;4.57;1.93;;;23.40;57.90;;;22.90;41.63;98532.69;5045823;27;113911;-70
2022/07/27 02:39:44;;;;;;;2.87;1.87;;;22.50;57.30;;;22.92;41.97;98533.09;5045285;27;123264;-70
2022/07/27 02:42:10;;;;;;;5.70;1.80;;;22.50;57.40;;;22.93;41.79;98534.69;5039759;27;122523;-70
2022/07/27 02:44:37;;;;;;;3.20;2.10;;;22.50;57.40;;;22.92;41.98;98538.72;5043457;27;114323;-71
2022/07/27 02:47:04;;;;;;;3.13;1.97;;;22.50;57.40;;;22.91;41.92;98539.91;5042789;27;113939;-70
2022/07/27 02:49:30;;;;;;;4.10;2.07;;;22.50;57.40;;;22.89;41.92;98536.72;5042275;27;124649;-70
2022/07/27 02:51:57;;;;;;;4.70;2.33;;;22.50;57.60;;;22.89;41.85;98542.34;5044891;27;123718;-70
2022/07/27 02:54:24;;;;;;;3.83;2.50;;;22.40;57.60;;;22.89;42.12;98542.34;5038925;27;114219;-70
2022/07/27 02:56:51;;;;;;;4.07;2.37;;;22.50;57.70;;;22.85;42.24;98538.72;5046561;27;114607;-70
2022/07/27 02:59:19;;;;;;;3.73;2.13;;;22.40;57.70;;;22.82;42.00;98542.34;5040724;27;124890;-70
2022/07/27 03:01:47;;;;;;;3.23;2.30;;;22.40;57.90;;;22.80;42.29;98527.84;5046914;27;123614;-70
2022/07/27 03:04:14;;;;;;;2.27;1.80;;;22.40;57.90;;;22.79;42.26;98531.88;5037667;27;115215;-70
2022/07/27 03:06:41;;;;;;;2.80;2.03;;;22.00;57.70;;;22.82;42.06;98533.09;5046750;27;114853;-70
2022/07/27 03:09:08;;;;;;;2.40;2.03;;;22.30;58.20;;;22.80;42.18;98533.47;5038128;27;124167;-70
2022/07/27 03:11:36;;;;;;;3.10;1.77;;;22.30;58.20;;;22.76;42.24;98538.31;5047541;27;123089;-70
2022/07/27 03:14:03;;;;;;;5.03;2.13;;;22.40;58.40;;;22.74;42.48;98535.09;5038378;27;114856;-70
2022/07/27 03:16:30;;;;;;;4.20;2.10;;;22.30;58.50;;;22.73;42.61;98544.75;5048399;27;113426;-70
2022/07/27 03:18:56;;;;;;;3.23;1.90;;;22.30;58.70;;;22.71;42.50;98535.88;5046403;27;124193;-70
2022/07/27 03:21:24;;;;;;;6.10;2.60;;;22.30;58.80;;;22.71;42.62;98533.88;5048422;27;122952;-70
2022/07/27 03:23:50;;;;;;;2.57;1.80;;;22.30;58.90;;;22.74;42.46;98526.63;5045064;27;114505;-70
2022/07/27 03:26:18;;;;;;;4.40;2.57;;;22.30;59.00;;;22.75;42.82;98539.50;5046760;27;114279;-70
2022/07/27 03:28:44;;;;;;;2.93;2.00;;;22.30;59.10;;;22.76;42.69;98543.94;5045263;27;124139;-70
2022/07/27 03:31:11;;;;;;;4.77;2.70;;;22.30;59.10;;;22.74;43.14;98543.53;5029085;27;122643;-70
2022/07/27 03:33:37;;;;;;;4.07;2.03;;;22.30;59.20;;;22.74;42.74;98542.72;5032046;27;114184;-70
2022/07/27 03:36:04;;;;;;;3.60;2.20;;;22.20;59.20;;;22.73;42.58;98539.13;5030383;27;114676;-70
2022/07/27 03:38:31;;;;;;;2.07;1.87;;;22.30;59.30;;;22.73;42.87;98541.94;5043891;27;123797;-70
2022/07/27 03:40:58;;;;;;;4.27;2.20;;;22.20;59.20;;;22.71;42.71;98541.53;5042163;27;122994;-70
2022/07/27 03:43:25;;;;;;;2.67;2.17;;;22.30;59.40;;;22.69;42.84;98541.09;5035211;27;113797;-69
2022/07/27 03:45:51;;;;;;;5.27;2.40;;;22.20;59.40;;;22.64;43.15;98536.66;5049074;27;113277;-69
2022/07/27 03:48:18;;;;;;;6.47;2.87;;;22.20;59.50;;;22.54;43.08;98536.66;5047235;27;123360;-69
2022/07/27 03:50:44;;;;;;;3.50;2.40;;;22.20;59.60;;;22.41;43.75;98525.78;5044020;27;123919;-70
2022/07/27 03:53:11;;;;;;;6.03;2.50;;;22.10;59.90;;;22.30;43.96;98538.19;5035171;27;114553;-69
2022/07/27 03:55:37;;;;;;;5.67;2.50;;;21.90;60.20;;;22.23;43.77;98551.06;5034255;27;114180;-70
2022/07/27 03:58:04;;;;;;;6.00;2.57;;;21.90;60.40;;;22.17;44.07;98546.19;5047278;27;123952;-69
2022/07/27 04:00:30;;;;;;;2.77;2.20;;;21.80;60.50;;;22.13;44.39;98551.00;5044750;27;124049;-70
2022/07/27 04:02:57;;;;;;;2.90;2.50;;;21.80;60.60;;;22.13;44.15;98551.00;5035116;27;114254;-70
2022/07/27 04:05:23;;;;;;;5.33;2.57;;;21.80;60.90;;;22.11;44.30;98551.41;5044049;27;113247;-70
2022/07/27 04:07:50;;;;;;;2.70;2.20;;;21.70;61.00;;;22.12;44.46;98560.63;5029905;27;124523;-70
2022/07/27 04:10:17;;;;;;;4.93;2.20;;;21.70;61.10;;;22.10;44.33;98546.16;5033332;27;123576;-70
2022/07/27 04:12:43;;;;;;;4.63;2.47;;;21.70;61.30;;;22.08;44.39;98554.19;5048538;27;114869;-71
2022/07/27 04:15:10;;;;;;;2.97;2.47;;;21.70;61.50;;;22.02;44.96;98553.75;5029472;27;113344;-70
2022/07/27 04:17:37;;;;;;;3.10;2.13;;;21.60;61.80;;;21.94;45.01;98550.09;5046085;27;124307;-70
2022/07/27 04:20:04;;;;;;;6.60;2.70;;;21.50;62.00;;;21.89;45.38;98570.16;5031368;27;123791;-70
2022/07/27 04:22:31;;;;;;;3.33;2.30;;;21.50;62.30;;;21.84;45.38;98567.72;5039553;27;114177;-69
2022/07/27 04:24:57;;;;;;;3.03;2.70;;;21.40;62.50;;;21.78;45.83;98567.28;5039681;27;113963;-70
2022/07/27 04:27:23;;;;;;;4.23;2.33;;;21.40;62.90;;;21.71;45.54;98566.44;5041313;27;123823;-70
2022/07/27 04:29:50;;;;;;;3.97;2.33;;;21.30;63.20;;;21.60;45.98;98564.41;5037297;27;123083;-70
2022/07/27 04:32:17;;;;;;;5.00;2.20;;;21.20;63.70;;;21.56;45.98;98574.00;5038066;27;114290;-70
2022/07/27 04:34:43;;;;;;;3.40;2.57;;;21.10;63.80;;;21.53;46.43;98564.34;5035892;27;115187;-70
2022/07/27 04:37:10;;;;;;;3.07;2.30;;;21.10;64.00;;;21.53;46.69;98577.59;5041370;27;123737;-70
2022/07/27 04:39:36;;;;;;;3.80;2.47;;;21.10;64.40;;;21.50;46.96;98575.56;5043205;27;123953;-70
2022/07/27 04:42:07;;;;;;;2.40;2.00;;;21.10;65.10;;;21.46;46.50;98575.53;5046741;27;115276;-70
2022/07/27 04:44:33;;;;;;;3.20;2.40;;;21.00;65.00;;;21.46;47.13;98586.78;5038224;27;114986;-70
2022/07/27 04:47:00;;;;;;;5.03;2.50;;;21.00;65.10;;;21.47;47.18;98576.38;5040859;27;123192;-70
2022/07/27 04:49:26;;;;;;;3.27;2.40;;;21.00;65.30;;;21.43;46.67;98570.69;5039312;27;123621;-70
2022/07/27 04:51:53;;;;;;;2.87;2.00;;;21.00;65.70;;;21.40;47.13;98582.72;5030527;27;114225;-70
2022/07/27 04:54:19;;;;;;;4.80;2.60;;;20.90;66.10;;;21.37;47.56;98589.94;5041955;27;114230;-70
2022/07/27 04:56:46;;;;;;;2.60;2.40;;;20.90;66.30;;;21.35;47.20;98577.44;5034029;27;124033;-70
2022/07/27 04:59:12;;;;;;;4.27;2.70;;;20.90;66.40;;;21.34;47.11;98581.44;5042804;27;123384;-69
2022/07/27 05:01:39;;;;;;;2.40;2.20;;;20.90;66.50;;;21.33;47.70;98589.09;5040856;27;114363;-69
2022/07/27 05:04:06;;;;;;;3.60;3.03;;;20.90;66.70;;;21.32;47.57;98593.06;5034293;27;113798;-69
2022/07/27 05:06:33;;;;;;;4.23;2.60;;;20.90;66.80;;;21.36;47.25;98593.13;5040674;27;124277;-69
2022/07/27 05:08:59;;;;;;;5.37;2.90;;;20.90;66.90;;;21.38;47.84;98596.34;5044484;27;124399;-69
2022/07/27 05:11:26;;;;;;;4.30;2.87;;;20.90;67.30;;;21.39;48.02;98586.75;5043836;27;114120;-69
2022/07/27 05:13:52;;;;;;;3.17;2.27;;;20.90;67.40;;;21.45;47.44;98584.38;5037564;27;113790;-70
2022/07/27 05:16:19;;;;;;;3.27;2.40;;;21.00;67.50;;;21.49;47.73;98594.41;5043784;27;125769;-69
2022/07/27 05:18:45;;;;;;;4.93;3.00;;;21.00;67.50;;;21.51;47.58;98605.28;5044224;27;123193;-69
2022/07/27 05:21:12;;;;;;;5.00;2.80;;;21.00;67.60;;;21.51;47.89;98602.47;5033196;27;114240;-70
2022/07/27 05:23:38;;;;;;;5.83;2.73;;;21.00;67.80;;;21.50;47.62;98609.31;5045293;27;114275;-70
2022/07/27 05:26:05;;;;;;;4.03;2.63;;;21.00;67.80;;;21.51;47.76;98616.53;5038194;27;124054;-69
2022/07/27 05:28:31;;;;;;;4.27;2.60;;;21.00;67.90;;;21.51;47.84;98622.97;5041719;27;123084;-69
2022/07/27 05:30:58;;;;;;;2.60;2.37;;;21.00;68.00;;;21.52;47.76;98618.97;5044303;27;115601;-70
2022/07/27 05:33:24;;;;;;;3.47;2.80;;;21.10;68.20;;;21.54;47.89;98610.94;5045068;27;115399;-71
2022/07/27 05:35:51;;;;;;;3.70;2.40;;;21.10;68.30;;;21.59;47.92;98604.94;5038828;27;124513;-70
2022/07/27 05:38:17;;;;;;;3.43;2.50;;;21.10;68.30;;;21.61;47.74;98611.00;5040747;27;124160;-70
2022/07/27 05:40:45;;;;;;;5.40;3.03;;;21.10;68.70;;;21.62;47.94;98621.03;5043335;27;114272;-70
2022/07/27 05:43:12;;;;;;;5.50;3.13;;;21.10;68.90;;;21.60;47.75;98617.81;5039331;27;114129;-70
2022/07/27 05:45:39;;;;;;;4.30;2.90;;;21.40;69.00;;;21.64;47.94;98612.22;5039152;27;123764;-71
2022/07/27 05:48:05;;;;;;;3.20;2.57;;;21.10;68.70;;;21.67;47.83;98621.88;5038628;27;123996;-71
2022/07/27 05:50:32;;;;;;;4.23;2.67;;;21.20;69.00;;;21.72;47.79;98625.13;5045013;27;115049;-70
2022/07/27 05:52:59;;;;;;;14.20;3.00;;;21.20;69.10;;;21.76;48.02;98634.41;5041021;27;114144;-71
2022/07/27 05:55:26;;;;;;;3.37;2.83;;;21.20;69.10;;;21.79;47.78;98630.00;5042252;27;124533;-70
2022/07/27 05:57:52;;;;;;;4.73;3.17;;;21.20;69.10;;;21.81;47.69;98624.78;5042263;27;123528;-69
2022/07/27 06:00:19;;;;;;;3.40;2.90;;;21.20;69.40;;;21.79;47.80;98628.00;5046196;27;113292;-69
2022/07/27 06:02:45;;;;;;;3.63;2.90;;;21.20;70.10;;;21.78;48.12;98634.78;5047080;27;114274;-69
2022/07/27 06:05:12;;;;;;;3.50;2.80;;;21.20;69.60;;;21.83;47.66;98639.25;5039246;27;124157;-70
2022/07/27 06:10:28;;;;;;;5.53;2.83;;;21.30;69.80;;;21.88;47.92;98652.94;5041270;27;115186;-70
2022/07/27 06:12:55;;;;;;;4.60;2.87;;;21.30;69.70;;;21.91;47.76;98649.34;5039923;27;114156;-70
2022/07/27 06:15:22;;;;;;;8.47;3.23;;;21.70;70.10;;;21.98;47.44;98646.59;5042234;27;124530;-69
2022/07/27 06:17:52;;;;;;;3.80;3.10;;;21.30;69.70;;;22.02;47.48;98641.78;5033000;27;123641;-70
2022/07/27 06:20:20;;;;;;;5.33;2.97;;;21.40;69.80;;;22.00;47.82;98632.94;5013627;27;113676;-71
2022/07/27 06:22:53;;;;;;;5.40;3.40;;;21.40;69.80;;;22.01;47.38;98640.16;5034017;27;115312;-71
2022/07/27 06:25:21;;;;;;;6.53;2.47;;;21.40;69.70;;;22.03;47.52;98634.97;5038497;27;124231;-69
2022/07/27 06:27:47;;;;;;;5.77;2.87;;;21.50;69.70;;;22.07;47.42;98643.41;5040264;27;124193;-71
2022/07/27 06:30:17;;;;;;;3.47;2.70;;;21.50;69.70;;;22.12;47.20;98645.84;5037988;27;113911;-71
2022/07/27 06:32:44;;;;;;;5.00;3.03;;;21.50;69.60;;;22.14;47.26;98632.22;5036809;27;114043;-72
2022/07/27 06:35:12;;;;;;;6.40;3.37;;;21.60;69.40;;;22.17;47.49;98641.88;5046157;27;124158;-70
2022/07/27 06:37:51;;;;;;;4.60;3.20;;;21.60;69.70;;;22.19;47.37;98650.72;5039444;27;124157;-71
2022/07/27 06:40:18;;;;;;;3.07;2.77;;;21.60;69.70;;;22.23;47.30;98657.19;5043391;27;114274;-70
2022/07/27 06:42:45;;;;;;;3.73;2.70;;;21.60;69.50;;;22.28;46.93;98659.66;5041610;27;113091;-74
2022/07/27 06:45:11;;;;;;;3.53;2.90;;;21.70;69.40;;;22.35;47.04;98661.69;5034252;27;124053;-71
2022/07/27 06:47:39;;;;;;;4.07;3.07;;;21.70;69.40;;;22.41;46.85;98652.47;5038245;27;124130;-71
2022/07/27 06:50:07;;;;;;;3.77;2.90;;;21.80;69.30;;;22.46;46.68;98646.47;5044697;27;111502;-72
2022/07/27 06:52:34;;;;;;;4.90;3.33;;;21.80;69.20;;;22.50;46.55;98655.72;5040391;27;113860;-72
2022/07/27 06:55:00;;;;;;;3.83;3.17;;;21.90;69.20;;;22.54;46.78;98654.91;5035624;27;124179;-73
2022/07/27 06:57:27;;;;;;;4.50;3.03;;;21.90;69.00;;;22.55;46.76;98656.53;5037450;27;123880;-72
2022/07/27 06:59:53;;;;;;;3.70;2.67;;;21.90;69.10;;;22.55;46.77;98656.53;5020029;27;113824;-70
2022/07/27 07:02:20;;;;;;;4.77;3.27;;;21.90;69.00;;;22.59;46.78;98652.53;5036537;27;113951;-71
2022/07/27 07:04:46;;;;;;;2.83;2.53;;;22.00;69.10;;;22.65;46.43;98656.59;5036173;27;123897;-72
2022/07/27 07:07:13;;;;;;;3.50;2.77;;;22.10;69.80;;;22.72;46.50;98645.31;5035173;27;124186;-72
2022/07/27 07:09:40;;;;;;;3.60;3.00;;;22.10;68.90;;;22.77;46.20;98646.94;5031677;27;115315;-72
2022/07/27 07:12:06;;;;;;;4.17;2.93;;;22.10;68.70;;;22.79;45.88;98644.56;5041098;27;113899;-72
2022/07/27 07:14:33;;;;;;;4.07;2.63;;;22.10;68.60;;;22.84;46.20;98641.34;5026511;27;124154;-72
2022/07/27 07:17:00;;;;;;;4.03;3.20;;;22.20;68.70;;;22.92;45.97;98645.00;5033866;27;123784;-72
2022/07/27 07:19:27;;;;;;;3.73;2.80;;;22.30;68.50;;;22.93;45.97;98647.38;5029900;27;114318;-71
2022/07/27 07:21:53;;;;;;;4.13;2.77;;;22.30;68.40;;;22.98;45.64;98646.22;5026687;27;114201;-71
2022/07/27 07:24:21;;;;;;;5.50;2.40;;;22.30;68.20;;;23.01;45.52;98645.44;5037656;27;123328;-71
2022/07/27 07:26:47;;;;;;;5.40;2.83;;;22.30;68.10;;;23.03;45.67;98643.03;5024892;27;122975;-77
2022/07/27 07:29:15;;;;;;;4.10;2.50;;;22.40;68.10;;;23.09;45.50;98643.44;5034914;27;114416;-72
2022/07/27 07:31:41;;;;;;;3.33;2.67;;;22.40;68.00;;;23.13;45.36;98644.22;5032953;27;113396;-71
2022/07/27 07:34:08;;;;;;;4.87;2.70;;;22.50;67.80;;;23.14;45.40;98637.41;5025024;27;123918;-71
2022/07/27 07:36:34;;;;;;;5.80;3.83;;;22.50;67.80;;;23.17;45.42;98645.06;5044415;27;123928;-70
2022/07/27 07:39:01;;;;;;;3.60;2.63;;;22.50;67.70;;;23.19;45.24;98645.47;5041554;27;114384;-71
2022/07/27 07:41:27;;;;;;;4.30;2.83;;;22.50;67.60;;;23.22;45.19;98638.22;5043145;27;114132;-69
2022/07/27 07:43:54;;;;;;;3.00;2.77;;;22.60;67.50;;;23.27;45.02;98641.44;5035227;27;123292;-69
2022/07/27 07:46:20;;;;;;;6.93;3.10;;;22.60;67.30;;;23.32;44.94;98638.22;5040938;27;124231;-71
2022/07/27 07:48:47;;;;;;;6.90;3.50;;;22.70;67.30;;;23.38;45.11;98630.97;5044182;27;114278;-70
2022/07/27 07:51:14;;;;;;;4.83;3.37;;;22.80;67.40;;;23.44;45.32;98627.75;5040319;27;114172;-71
2022/07/27 07:53:40;;;;;;;4.33;3.10;;;22.80;67.20;;;23.48;44.86;98628.53;5038469;27;124563;-70
2022/07/27 07:56:07;;;;;;;4.80;2.70;;;22.80;67.10;;;23.43;44.88;98631.75;5040551;27;123843;-69
2022/07/27 07:58:34;;;;;;;6.07;3.23;;;22.80;67.20;;;23.43;44.80;98626.13;5040853;27;115290;-71
2022/07/27 08:01:00;;;;;;;3.17;2.67;;;22.90;67.30;;;23.47;44.79;98626.94;5030896;27;115091;-71
2022/07/27 08:03:26;;;;;;;6.27;3.30;;;22.80;67.10;;;23.47;44.78;98627.72;5028999;27;124256;-73
2022/07/27 08:05:53;;;;;;;5.77;3.10;;;22.80;67.00;;;23.45;44.66;98635.78;5036244;27;123332;-71
2022/07/27 08:08:19;;;;;;;6.40;4.07;;;22.80;67.00;;;23.44;44.92;98650.31;5027374;27;114388;-73
2022/07/27 08:10:46;;;;;;;8.33;3.60;;;22.80;67.00;;;23.40;44.91;98639.03;5034183;27;113920;-71
2022/07/27 08:13:13;;;;;;;5.80;3.20;;;22.80;66.80;;;23.36;44.78;98644.66;5032150;27;125020;-72
2022/07/27 08:15:39;;;;;;;5.70;3.30;;;22.80;67.60;;;23.38;45.00;98647.88;5049791;27;124754;-72
2022/07/27 08:18:06;;;;;;;4.33;3.20;;;22.80;67.10;;;23.41;45.02;98648.28;5035105;27;114822;-72
2022/07/27 08:20:33;;;;;;;4.63;2.83;;;22.80;67.20;;;23.46;45.05;98645.06;5028288;27;114225;-72
2022/07/27 08:23:00;;;;;;;5.97;3.90;;;22.80;67.00;;;23.49;44.75;98647.88;5033224;27;124834;-71
2022/07/27 08:25:26;;;;;;;4.27;3.33;;;22.90;66.80;;;23.50;44.67;98645.88;5035167;27;123801;-71
2022/07/27 08:27:53;;;;;;;4.33;2.80;;;22.90;66.50;;;23.52;44.61;98646.28;5040190;27;114488;-72
2022/07/27 08:30:23;;;;;;;5.87;2.63;;;22.90;66.60;;;23.64;44.67;98647.88;5044616;27;114702;-72
2022/07/27 08:32:59;;;;;;;6.03;3.20;;;23.00;66.70;;;23.77;44.22;98637.81;5030234;27;121270;-73
2022/07/27 08:35:43;;;;;;;6.00;3.13;;;23.10;66.70;;;23.90;44.24;98641.03;5046955;27;123809;-73
2022/07/27 08:38:10;;;;;;;3.60;3.27;;;23.20;66.50;;;23.99;43.80;98647.03;5043990;27;114186;-72
2022/07/27 08:40:38;;;;;;;4.50;3.47;;;23.30;66.30;;;24.05;43.68;98651.06;5043682;27;113258;-72
2022/07/27 08:43:06;;;;;;;3.50;2.50;;;23.40;65.90;;;24.08;43.77;98647.44;5035280;27;123938;-72
2022/07/27 08:45:34;;;;;;;7.53;3.00;;;23.40;65.80;;;24.15;43.40;98644.59;5042383;27;123388;-71
2022/07/27 08:48:01;;;;;;;4.73;2.93;;;23.50;65.60;;;24.20;43.26;98646.97;5029793;27;114032;-72
2022/07/27 08:50:29;;;;;;;5.00;2.80;;;23.50;65.40;;;24.31;42.96;98646.94;5035568;27;115187;-72
2022/07/27 08:53:05;;;;;;;3.63;2.83;;;23.60;65.00;;;24.37;42.91;98653.00;5031734;27;124653;-71
2022/07/27 08:55:44;;;;;;;4.23;2.73;;;23.70;64.90;;;24.48;42.78;98647.34;5037154;27;123878;-72
2022/07/27 08:58:13;;;;;;;4.70;3.07;;;23.80;64.90;;;24.59;42.88;98651.72;5044388;27;114338;-71
2022/07/27 09:00:47;;;;;;;3.43;3.10;;;23.90;64.80;;;24.64;42.73;98653.31;5009236;27;114674;-72
2022/07/27 09:03:16;;;;;;;8.17;4.10;;;24.00;64.60;;;24.70;42.18;98660.16;5029480;27;124238;-71
2022/07/27 09:05:45;;;;;;;5.20;3.17;;;24.00;64.30;;;24.72;42.39;98648.41;5022189;27;124014;-71
2022/07/27 09:08:15;;;;;;;5.20;3.20;;;24.00;64.20;;;24.73;42.32;98647.22;5035389;27;114878;-71
2022/07/27 09:10:43;;;;;;;4.13;2.87;;;23.90;63.90;;;24.73;42.36;98641.56;5033378;27;114212;-71
2022/07/27 09:13:29;;;;;;;4.20;2.90;;;24.00;63.90;;;24.77;42.23;98642.34;5026142;27;125222;-72
2022/07/27 09:16:02;;;;;;;10.17;3.20;;;24.10;63.60;;;24.86;42.05;98637.06;5033334;27;124427;-71
2022/07/27 09:18:32;;;;;;;10.57;3.03;;;24.20;63.70;;;24.94;41.79;98638.63;5032662;27;114789;-72
2022/07/27 09:21:22;;;;;;;3.80;2.63;;;24.20;63.50;;;24.89;41.91;98642.69;5036157;27;114082;-72
2022/07/27 09:23:56;;;;;;;4.30;3.13;;;24.30;63.10;;;24.90;41.67;98654.78;5042897;27;124647;-74
2022/07/27 09:26:26;;;;;;;7.03;2.93;;;24.30;63.20;;;24.95;41.99;98647.91;5046954;27;123943;-69
2022/07/27 09:28:58;;;;;;;5.17;3.50;;;24.30;63.10;;;24.92;42.04;98639.03;5046428;27;114428;-70
2022/07/27 09:31:25;;;;;;;7.93;3.40;;;24.30;63.00;;;24.95;41.46;98648.69;5040313;27;114095;-72
2022/07/27 09:33:55;;;;;;;4.30;3.20;;;24.30;62.90;;;24.94;41.85;98638.63;5034440;27;123992;-69
2022/07/27 09:36:24;;;;;;;4.50;3.23;;;24.30;62.80;;;24.96;41.38;98649.50;5043544;27;123729;-70
2022/07/27 09:39:02;;;;;;;3.20;2.90;;;24.30;62.80;;;24.96;41.75;98653.16;5037002;27;116061;-70
2022/07/27 09:41:44;;;;;;;3.90;2.50;;;24.30;62.80;;;25.02;41.88;98645.03;5044122;27;115423;-69
2022/07/27 09:44:11;;;;;;;3.90;3.00;;;24.40;62.80;;;25.09;41.48;98651.44;5040191;27;123845;-70
2022/07/27 09:46:43;;;;;;;6.87;3.30;;;24.40;62.80;;;25.17;41.64;98649.38;5025156;27;121648;-70
2022/07/27 09:49:34;;;;;;;3.33;2.97;;;24.50;62.70;;;25.24;41.18;98654.19;5046715;27;114853;-69
2022/07/27 09:52:02;;;;;;;5.13;2.73;;;24.60;62.50;;;25.29;41.54;98659.41;5036984;27;114169;-69
2022/07/27 09:54:45;;;;;;;3.10;2.50;;;24.70;62.50;;;25.34;40.81;98654.13;5035872;27;123690;-69
2022/07/27 09:57:12;;;;;;;4.53;2.93;;;24.70;61.90;;;25.35;40.76;98661.38;5037494;27;123900;-69
2022/07/27 09:59:39;;;;;;;6.53;3.30;;;24.70;61.30;;;25.31;40.77;98646.47;5043062;27;114349;-71
2022/07/27 10:02:05;;;;;;;4.37;2.90;;;24.70;61.30;;;25.32;40.99;98648.06;5041396;27;114117;-70
2022/07/27 10:04:32;;;;;;;5.13;2.83;;;24.70;61.20;;;25.35;40.77;98652.09;5031135;27;124367;-70
2022/07/27 10:07:00;;;;;;;3.80;3.30;;;24.80;61.40;;;25.40;40.65;98646.00;5040597;27;123320;-70
2022/07/27 10:09:29;;;;;;;9.80;3.10;;;24.90;61.40;;;25.43;41.08;98642.34;5036730;27;113798;-69
2022/07/27 10:11:56;;;;;;;7.37;3.30;;;24.90;61.40;;;25.50;40.56;98647.94;5043437;27;113883;-69
2022/07/27 10:14:24;;;;;;;4.53;2.90;;;24.90;61.40;;;25.60;40.51;98651.09;5047244;27;122517;-70
2022/07/27 10:16:52;;;;;;;4.77;3.27;;;25.00;61.30;;;25.65;40.41;98642.16;5036310;27;121674;-70
2022/07/27 10:19:49;;;;;;;5.73;2.83;;;25.00;61.20;;;25.67;40.38;98636.88;5043690;27;114440;-70